sensor_id;sensor_type;location;lat;lon;timestamp;temperature;humidity
52459;DHT22;38372;52.902;6.024;2023-02-28T00:00:13;3.70;99.90
52459;DHT22;38372;52.902;6.024;2023-02-28T00:02:41;3.70;99.90
52459;DHT22;38372;52.902;6.024;2023-02-28T00:05:08;3.70;99.90
52459;DHT22;38372;52.902;6.024;2023-02-28T00:07:36;3.70;99.90
52459;DHT22;38372;52.902;6.024;2023-02-28T00:10:03;3.70;99.90
52459;DHT22;38372;52.902;6.024;2023-02-28T00:12:29;3.70;99.90
52459;DHT22;38372;52.902;6.024;2023-02-28T00:14:55;3.70;99.90
52459;DHT22;38372;52.902;6.024;2023-02-28T00:17:21;3.70;99.90
52459;DHT22;38372;52.902;6.024;2023-02-28T00:19:48;3.70;99.90
52459;DHT22;38372;52.902;6.024;2023-02-28T00:22:15;3.70;99.90
52459;DHT22;38372;52.902;6.024;2023-02-28T00:24:41;3.70;99.90
52459;DHT22;38372;52.902;6.024;2023-02-28T00:27:07;3.70;99.90
52459;DHT22;38372;52.902;6.024;2023-02-28T00:29:32;3.70;99.90
52459;DHT22;38372;52.902;6.024;2023-02-28T00:31:58;3.70;99.90
52459;DHT22;38372;52.902;6.024;2023-02-28T00:34:24;3.70;99.90
52459;DHT22;38372;52.902;6.024;2023-02-28T00:36:50;3.60;99.90
52459;DHT22;38372;52.902;6.024;2023-02-28T00:39:16;3.60;99.90
52459;DHT22;38372;52.902;6.024;2023-02-28T00:41:42;3.60;99.90
52459;DHT22;38372;52.902;6.024;2023-02-28T00:44:07;3.60;99.90
52459;DHT22;38372;52.902;6.024;2023-02-28T00:46:33;3.50;99.90
52459;DHT22;38372;52.902;6.024;2023-02-28T00:48:59;3.50;99.90
52459;DHT22;38372;52.902;6.024;2023-02-28T00:51:25;3.50;99.90
52459;DHT22;38372;52.902;6.024;2023-02-28T00:53:50;3.50;99.90
52459;DHT22;38372;52.902;6.024;2023-02-28T00:56:16;3.50;99.90
52459;DHT22;38372;52.902;6.024;2023-02-28T00:58:42;3.50;99.90
52459;DHT22;38372;52.902;6.024;2023-02-28T01:01:08;3.50;99.90
52459;DHT22;38372;52.902;6.024;2023-02-28T01:03:33;3.50;99.90
52459;DHT22;38372;52.902;6.024;2023-02-28T01:05:59;3.50;99.90
52459;DHT22;38372;52.902;6.024;2023-02-28T01:08:25;3.50;99.90
52459;DHT22;38372;52.902;6.024;2023-02-28T01:10:52;3.60;99.90
52459;DHT22;38372;52.902;6.024;2023-02-28T01:13:18;3.60;99.90
52459;DHT22;38372;52.902;6.024;2023-02-28T01:15:55;3.60;99.90
52459;DHT22;38372;52.902;6.024;2023-02-28T01:18:22;3.60;99.90
52459;DHT22;38372;52.902;6.024;2023-02-28T01:20:48;3.60;99.90
52459;DHT22;38372;52.902;6.024;2023-02-28T01:23:14;3.60;99.90
52459;DHT22;38372;52.902;6.024;2023-02-28T01:25:40;3.60;99.90
52459;DHT22;38372;52.902;6.024;2023-02-28T01:28:06;3.60;99.90
52459;DHT22;38372;52.902;6.024;2023-02-28T01:30:32;3.60;99.90
52459;DHT22;38372;52.902;6.024;2023-02-28T01:32:58;3.60;99.90
52459;DHT22;38372;52.902;6.024;2023-02-28T01:35:25;3.60;99.90
52459;DHT22;38372;52.902;6.024;2023-02-28T01:37:50;3.60;99.90
52459;DHT22;38372;52.902;6.024;2023-02-28T01:40:16;3.60;99.90
52459;DHT22;38372;52.902;6.024;2023-02-28T01:42:42;3.60;99.90
52459;DHT22;38372;52.902;6.024;2023-02-28T01:45:22;3.60;99.90
52459;DHT22;38372;52.902;6.024;2023-02-28T01:47:51;3.70;99.90
52459;DHT22;38372;52.902;6.024;2023-02-28T01:50:22;3.70;99.90
52459;DHT22;38372;52.902;6.024;2023-02-28T01:52:48;3.60;99.90
52459;DHT22;38372;52.902;6.024;2023-02-28T01:55:16;3.60;99.90
52459;DHT22;38372;52.902;6.024;2023-02-28T01:57:48;3.60;99.90
52459;DHT22;38372;52.902;6.024;2023-02-28T02:00:18;3.60;99.90
52459;DHT22;38372;52.902;6.024;2023-02-28T02:02:48;3.60;99.90
52459;DHT22;38372;52.902;6.024;2023-02-28T02:05:20;3.60;99.90
52459;DHT22;38372;52.902;6.024;2023-02-28T02:07:49;3.60;99.90
52459;DHT22;38372;52.902;6.024;2023-02-28T02:10:22;3.60;99.90
52459;DHT22;38372;52.902;6.024;2023-02-28T02:15:38;3.60;99.90
52459;DHT22;38372;52.902;6.024;2023-02-28T02:29:38;3.60;99.90
52459;DHT22;38372;52.902;6.024;2023-02-28T02:32:35;3.60;99.90
52459;DHT22;38372;52.902;6.024;2023-02-28T02:38:36;3.60;99.90
52459;DHT22;38372;52.902;6.024;2023-02-28T02:46:42;3.60;99.90
52459;DHT22;38372;52.902;6.024;2023-02-28T02:49:14;3.60;99.90
52459;DHT22;38372;52.902;6.024;2023-02-28T02:51:41;3.60;99.90
52459;DHT22;38372;52.902;6.024;2023-02-28T02:54:24;3.60;99.90
52459;DHT22;38372;52.902;6.024;2023-02-28T02:56:59;3.60;99.90
52459;DHT22;38372;52.902;6.024;2023-02-28T02:59:28;3.60;99.90
52459;DHT22;38372;52.902;6.024;2023-02-28T03:02:04;3.70;99.90
52459;DHT22;38372;52.902;6.024;2023-02-28T03:04:34;3.70;99.90
52459;DHT22;38372;52.902;6.024;2023-02-28T03:07:02;3.70;99.90
52459;DHT22;38372;52.902;6.024;2023-02-28T03:09:28;3.70;99.90
52459;DHT22;38372;52.902;6.024;2023-02-28T03:11:55;3.70;99.90
52459;DHT22;38372;52.902;6.024;2023-02-28T03:14:40;3.70;99.90
52459;DHT22;38372;52.902;6.024;2023-02-28T03:23:13;3.70;99.90
52459;DHT22;38372;52.902;6.024;2023-02-28T03:26:04;3.70;99.90
52459;DHT22;38372;52.902;6.024;2023-02-28T03:28:43;3.70;99.90
52459;DHT22;38372;52.902;6.024;2023-02-28T03:34:17;3.80;99.90
52459;DHT22;38372;52.902;6.024;2023-02-28T03:36:48;3.80;99.90
52459;DHT22;38372;52.902;6.024;2023-02-28T03:39:44;3.70;99.90
52459;DHT22;38372;52.902;6.024;2023-02-28T03:42:15;3.70;99.90
52459;DHT22;38372;52.902;6.024;2023-02-28T03:44:45;3.70;99.90
52459;DHT22;38372;52.902;6.024;2023-02-28T03:47:19;3.70;99.90
52459;DHT22;38372;52.902;6.024;2023-02-28T03:49:52;3.70;99.90
52459;DHT22;38372;52.902;6.024;2023-02-28T03:52:21;3.70;99.90
52459;DHT22;38372;52.902;6.024;2023-02-28T03:54:51;3.70;99.90
52459;DHT22;38372;52.902;6.024;2023-02-28T04:00:09;3.70;99.90
52459;DHT22;38372;52.902;6.024;2023-02-28T04:02:35;3.70;99.90
52459;DHT22;38372;52.902;6.024;2023-02-28T04:05:01;3.70;99.90
52459;DHT22;38372;52.902;6.024;2023-02-28T04:07:31;3.70;99.90
52459;DHT22;38372;52.902;6.024;2023-02-28T04:09:58;3.70;99.90
52459;DHT22;38372;52.902;6.024;2023-02-28T04:12:24;3.70;99.90
52459;DHT22;38372;52.902;6.024;2023-02-28T04:14:50;3.70;99.90
52459;DHT22;38372;52.902;6.024;2023-02-28T04:17:16;3.70;99.90
52459;DHT22;38372;52.902;6.024;2023-02-28T04:19:42;3.70;99.90
52459;DHT22;38372;52.902;6.024;2023-02-28T04:22:09;3.60;99.90
52459;DHT22;38372;52.902;6.024;2023-02-28T04:24:35;3.60;99.90
52459;DHT22;38372;52.902;6.024;2023-02-28T04:27:01;3.50;99.90
52459;DHT22;38372;52.902;6.024;2023-02-28T04:29:29;3.50;99.90
52459;DHT22;38372;52.902;6.024;2023-02-28T04:31:57;3.40;99.90
52459;DHT22;38372;52.902;6.024;2023-02-28T04:34:30;3.30;99.90
52459;DHT22;38372;52.902;6.024;2023-02-28T04:36:57;3.30;99.90
52459;DHT22;38372;52.902;6.024;2023-02-28T04:39:23;3.30;99.90
52459;DHT22;38372;52.902;6.024;2023-02-28T04:41:50;3.20;99.90
52459;DHT22;38372;52.902;6.024;2023-02-28T04:44:16;3.20;99.90
52459;DHT22;38372;52.902;6.024;2023-02-28T04:46:43;3.20;99.90
52459;DHT22;38372;52.902;6.024;2023-02-28T04:49:12;3.20;99.90
52459;DHT22;38372;52.902;6.024;2023-02-28T04:51:39;3.20;99.90
52459;DHT22;38372;52.902;6.024;2023-02-28T04:54:05;3.10;99.90
52459;DHT22;38372;52.902;6.024;2023-02-28T04:56:30;3.10;99.90
52459;DHT22;38372;52.902;6.024;2023-02-28T04:58:56;3.00;99.90
52459;DHT22;38372;52.902;6.024;2023-02-28T05:01:27;3.00;99.90
52459;DHT22;38372;52.902;6.024;2023-02-28T05:03:55;2.90;99.90
52459;DHT22;38372;52.902;6.024;2023-02-28T05:06:23;2.80;99.90
52459;DHT22;38372;52.902;6.024;2023-02-28T05:08:50;2.80;99.90
52459;DHT22;38372;52.902;6.024;2023-02-28T05:11:28;2.80;99.90
52459;DHT22;38372;52.902;6.024;2023-02-28T05:13:59;2.70;99.90
52459;DHT22;38372;52.902;6.024;2023-02-28T05:16:24;2.70;99.90
52459;DHT22;38372;52.902;6.024;2023-02-28T05:18:50;2.70;99.90
52459;DHT22;38372;52.902;6.024;2023-02-28T05:23:54;2.60;99.90
52459;DHT22;38372;52.902;6.024;2023-02-28T05:26:20;2.50;99.90
52459;DHT22;38372;52.902;6.024;2023-02-28T05:28:46;2.50;99.90
52459;DHT22;38372;52.902;6.024;2023-02-28T05:31:12;2.40;99.90
52459;DHT22;38372;52.902;6.024;2023-02-28T05:33:38;2.40;99.90
52459;DHT22;38372;52.902;6.024;2023-02-28T05:36:05;2.30;99.90
52459;DHT22;38372;52.902;6.024;2023-02-28T05:38:31;2.30;99.90
52459;DHT22;38372;52.902;6.024;2023-02-28T05:40:57;2.30;99.90
52459;DHT22;38372;52.902;6.024;2023-02-28T05:43:23;2.30;99.90
52459;DHT22;38372;52.902;6.024;2023-02-28T05:45:49;2.20;99.90
52459;DHT22;38372;52.902;6.024;2023-02-28T05:48:15;2.20;99.90
52459;DHT22;38372;52.902;6.024;2023-02-28T05:50:42;2.20;99.90
52459;DHT22;38372;52.902;6.024;2023-02-28T05:53:10;2.20;99.90
52459;DHT22;38372;52.902;6.024;2023-02-28T05:55:36;2.20;99.90
52459;DHT22;38372;52.902;6.024;2023-02-28T05:58:03;2.20;99.90
52459;DHT22;38372;52.902;6.024;2023-02-28T06:00:28;2.20;99.90
52459;DHT22;38372;52.902;6.024;2023-02-28T06:02:54;2.20;99.90
52459;DHT22;38372;52.902;6.024;2023-02-28T06:05:23;2.20;99.90
52459;DHT22;38372;52.902;6.024;2023-02-28T06:07:50;2.10;99.90
52459;DHT22;38372;52.902;6.024;2023-02-28T06:10:16;2.20;99.90
52459;DHT22;38372;52.902;6.024;2023-02-28T06:12:42;2.20;99.90
52459;DHT22;38372;52.902;6.024;2023-02-28T06:15:13;2.20;99.90
52459;DHT22;38372;52.902;6.024;2023-02-28T06:17:40;2.20;99.90
52459;DHT22;38372;52.902;6.024;2023-02-28T06:20:08;2.10;99.90
52459;DHT22;38372;52.902;6.024;2023-02-28T06:22:35;2.10;99.90
52459;DHT22;38372;52.902;6.024;2023-02-28T06:25:01;2.10;99.90
52459;DHT22;38372;52.902;6.024;2023-02-28T06:27:27;2.10;99.90
52459;DHT22;38372;52.902;6.024;2023-02-28T06:29:56;2.10;99.90
52459;DHT22;38372;52.902;6.024;2023-02-28T06:32:22;2.10;99.90
52459;DHT22;38372;52.902;6.024;2023-02-28T06:34:47;2.10;99.90
52459;DHT22;38372;52.902;6.024;2023-02-28T06:37:14;2.10;99.90
52459;DHT22;38372;52.902;6.024;2023-02-28T06:39:40;2.10;99.90
52459;DHT22;38372;52.902;6.024;2023-02-28T06:42:06;2.10;99.90
52459;DHT22;38372;52.902;6.024;2023-02-28T06:44:31;2.10;99.90
52459;DHT22;38372;52.902;6.024;2023-02-28T06:47:05;2.00;99.90
52459;DHT22;38372;52.902;6.024;2023-02-28T06:49:33;2.00;99.90
52459;DHT22;38372;52.902;6.024;2023-02-28T06:51:59;2.00;99.90
52459;DHT22;38372;52.902;6.024;2023-02-28T06:54:25;2.00;99.90
52459;DHT22;38372;52.902;6.024;2023-02-28T06:56:51;1.90;99.90
52459;DHT22;38372;52.902;6.024;2023-02-28T06:59:17;1.90;99.90
52459;DHT22;38372;52.902;6.024;2023-02-28T07:01:43;1.90;99.90
52459;DHT22;38372;52.902;6.024;2023-02-28T07:04:09;1.90;99.90
52459;DHT22;38372;52.902;6.024;2023-02-28T07:06:34;1.90;99.90
52459;DHT22;38372;52.902;6.024;2023-02-28T07:09:00;1.90;99.90
52459;DHT22;38372;52.902;6.024;2023-02-28T07:11:27;1.90;99.90
52459;DHT22;38372;52.902;6.024;2023-02-28T07:13:57;1.90;99.90
52459;DHT22;38372;52.902;6.024;2023-02-28T07:16:24;1.90;99.90
52459;DHT22;38372;52.902;6.024;2023-02-28T07:18:52;2.00;99.90
52459;DHT22;38372;52.902;6.024;2023-02-28T07:21:18;2.00;99.90
52459;DHT22;38372;52.902;6.024;2023-02-28T07:23:44;2.00;99.90
52459;DHT22;38372;52.902;6.024;2023-02-28T07:26:13;2.00;99.90
52459;DHT22;38372;52.902;6.024;2023-02-28T07:28:44;2.00;99.90
52459;DHT22;38372;52.902;6.024;2023-02-28T07:31:11;2.10;99.90
52459;DHT22;38372;52.902;6.024;2023-02-28T07:33:37;2.10;99.90
52459;DHT22;38372;52.902;6.024;2023-02-28T07:36:12;2.10;99.90
52459;DHT22;38372;52.902;6.024;2023-02-28T07:38:47;2.10;99.90
52459;DHT22;38372;52.902;6.024;2023-02-28T07:41:14;2.20;99.90
52459;DHT22;38372;52.902;6.024;2023-02-28T07:43:40;2.20;99.90
52459;DHT22;38372;52.902;6.024;2023-02-28T07:46:08;2.20;99.90
52459;DHT22;38372;52.902;6.024;2023-02-28T07:48:35;2.30;99.90
52459;DHT22;38372;52.902;6.024;2023-02-28T07:51:01;2.30;99.90
52459;DHT22;38372;52.902;6.024;2023-02-28T07:53:28;2.40;99.90
52459;DHT22;38372;52.902;6.024;2023-02-28T07:55:59;2.40;99.90
52459;DHT22;38372;52.902;6.024;2023-02-28T07:58:26;2.40;99.90
52459;DHT22;38372;52.902;6.024;2023-02-28T08:00:52;2.40;99.90
52459;DHT22;38372;52.902;6.024;2023-02-28T08:03:19;2.40;99.90
52459;DHT22;38372;52.902;6.024;2023-02-28T08:05:45;2.50;99.90
52459;DHT22;38372;52.902;6.024;2023-02-28T08:08:11;2.50;99.90
52459;DHT22;38372;52.902;6.024;2023-02-28T08:10:37;2.50;99.90
52459;DHT22;38372;52.902;6.024;2023-02-28T08:13:02;2.50;99.90
52459;DHT22;38372;52.902;6.024;2023-02-28T08:15:28;2.50;99.90
52459;DHT22;38372;52.902;6.024;2023-02-28T08:17:54;2.50;99.90
52459;DHT22;38372;52.902;6.024;2023-02-28T08:20:22;2.50;99.90
52459;DHT22;38372;52.902;6.024;2023-02-28T08:22:48;2.60;99.90
52459;DHT22;38372;52.902;6.024;2023-02-28T08:25:14;2.60;99.90
52459;DHT22;38372;52.902;6.024;2023-02-28T08:27:40;2.60;99.90
52459;DHT22;38372;52.902;6.024;2023-02-28T08:30:06;2.60;99.90
52459;DHT22;38372;52.902;6.024;2023-02-28T08:32:33;2.70;99.90
52459;DHT22;38372;52.902;6.024;2023-02-28T08:34:59;2.70;99.90
52459;DHT22;38372;52.902;6.024;2023-02-28T08:37:25;2.70;99.90
52459;DHT22;38372;52.902;6.024;2023-02-28T08:39:51;2.80;99.90
52459;DHT22;38372;52.902;6.024;2023-02-28T08:42:17;2.90;99.90
52459;DHT22;38372;52.902;6.024;2023-02-28T08:44:42;2.90;99.90
52459;DHT22;38372;52.902;6.024;2023-02-28T08:47:08;3.00;99.90
52459;DHT22;38372;52.902;6.024;2023-02-28T08:49:36;3.00;99.90
52459;DHT22;38372;52.902;6.024;2023-02-28T08:52:05;3.10;99.90
52459;DHT22;38372;52.902;6.024;2023-02-28T08:54:32;3.20;99.90
52459;DHT22;38372;52.902;6.024;2023-02-28T08:57:04;3.20;99.90
52459;DHT22;38372;52.902;6.024;2023-02-28T08:59:39;3.30;99.90
52459;DHT22;38372;52.902;6.024;2023-02-28T09:02:13;3.40;99.90
52459;DHT22;38372;52.902;6.024;2023-02-28T09:04:40;3.40;99.90
52459;DHT22;38372;52.902;6.024;2023-02-28T09:07:06;3.50;99.90
52459;DHT22;38372;52.902;6.024;2023-02-28T09:09:32;3.50;99.90
52459;DHT22;38372;52.902;6.024;2023-02-28T09:11:58;3.50;99.90
52459;DHT22;38372;52.902;6.024;2023-02-28T09:14:24;3.50;99.90
52459;DHT22;38372;52.902;6.024;2023-02-28T09:16:50;3.60;99.90
52459;DHT22;38372;52.902;6.024;2023-02-28T09:19:16;3.70;99.90
52459;DHT22;38372;52.902;6.024;2023-02-28T09:21:45;3.80;99.90
52459;DHT22;38372;52.902;6.024;2023-02-28T09:24:11;3.90;99.90
52459;DHT22;38372;52.902;6.024;2023-02-28T09:26:39;4.00;99.90
52459;DHT22;38372;52.902;6.024;2023-02-28T09:29:06;4.10;99.90
52459;DHT22;38372;52.902;6.024;2023-02-28T09:31:32;4.20;99.90
52459;DHT22;38372;52.902;6.024;2023-02-28T09:33:58;4.40;99.90
52459;DHT22;38372;52.902;6.024;2023-02-28T09:36:29;4.40;99.90
52459;DHT22;38372;52.902;6.024;2023-02-28T09:38:55;4.50;99.90
52459;DHT22;38372;52.902;6.024;2023-02-28T09:41:26;4.60;99.90
52459;DHT22;38372;52.902;6.024;2023-02-28T09:43:59;4.70;99.90
52459;DHT22;38372;52.902;6.024;2023-02-28T09:46:27;4.80;99.90
52459;DHT22;38372;52.902;6.024;2023-02-28T09:48:54;5.20;99.90
52459;DHT22;38372;52.902;6.024;2023-02-28T09:53:57;6.10;99.90
52459;DHT22;38372;52.902;6.024;2023-02-28T09:56:32;6.50;99.90
52459;DHT22;38372;52.902;6.024;2023-02-28T10:02:04;8.50;99.90
52459;DHT22;38372;52.902;6.024;2023-02-28T10:10:31;11.60;99.90
52459;DHT22;38372;52.902;6.024;2023-02-28T10:13:01;12.30;99.90
52459;DHT22;38372;52.902;6.024;2023-02-28T10:15:30;12.70;99.90
52459;DHT22;38372;52.902;6.024;2023-02-28T10:18:03;13.10;99.90
52459;DHT22;38372;52.902;6.024;2023-02-28T10:20:33;13.40;99.90
52459;DHT22;38372;52.902;6.024;2023-02-28T10:25:45;12.80;99.90
52459;DHT22;38372;52.902;6.024;2023-02-28T10:28:17;12.70;99.90
52459;DHT22;38372;52.902;6.024;2023-02-28T10:30:51;12.90;99.90
52459;DHT22;38372;52.902;6.024;2023-02-28T10:33:30;12.40;99.90
52459;DHT22;38372;52.902;6.024;2023-02-28T10:35:57;11.90;99.90
52459;DHT22;38372;52.902;6.024;2023-02-28T10:38:25;12.10;99.90
52459;DHT22;38372;52.902;6.024;2023-02-28T10:41:07;12.70;99.90
52459;DHT22;38372;52.902;6.024;2023-02-28T10:43:34;13.20;99.90
52459;DHT22;38372;52.902;6.024;2023-02-28T10:48:50;14.00;99.90
52459;DHT22;38372;52.902;6.024;2023-02-28T10:51:23;14.40;99.90
52459;DHT22;38372;52.902;6.024;2023-02-28T10:53:55;14.70;99.90
52459;DHT22;38372;52.902;6.024;2023-02-28T10:56:24;15.00;99.90
52459;DHT22;38372;52.902;6.024;2023-02-28T11:01:47;14.40;99.90
52459;DHT22;38372;52.902;6.024;2023-02-28T11:06:57;14.30;99.90
52459;DHT22;38372;52.902;6.024;2023-02-28T11:09:28;14.60;99.90
52459;DHT22;38372;52.902;6.024;2023-02-28T11:11:57;14.80;99.70
52459;DHT22;38372;52.902;6.024;2023-02-28T11:14:28;15.00;98.80
52459;DHT22;38372;52.902;6.024;2023-02-28T11:17:03;15.20;97.90
52459;DHT22;38372;52.902;6.024;2023-02-28T11:19:41;15.80;98.40
52459;DHT22;38372;52.902;6.024;2023-02-28T11:22:09;15.70;95.40
52459;DHT22;38372;52.902;6.024;2023-02-28T11:24:43;15.60;95.70
52459;DHT22;38372;52.902;6.024;2023-02-28T11:29:52;15.10;92.80
52459;DHT22;38372;52.902;6.024;2023-02-28T11:32:24;15.10;93.60
52459;DHT22;38372;52.902;6.024;2023-02-28T11:35:16;15.10;92.60
52459;DHT22;38372;52.902;6.024;2023-02-28T11:37:43;14.50;90.80
52459;DHT22;38372;52.902;6.024;2023-02-28T11:40:21;14.10;91.70
52459;DHT22;38372;52.902;6.024;2023-02-28T11:48:21;13.50;90.20
52459;DHT22;38372;52.902;6.024;2023-02-28T11:53:40;14.20;92.50
52459;DHT22;38372;52.902;6.024;2023-02-28T12:01:38;15.30;90.00
52459;DHT22;38372;52.902;6.024;2023-02-28T12:18:47;15.40;85.20
52459;DHT22;38372;52.902;6.024;2023-02-28T12:26:40;13.80;86.60
52459;DHT22;38372;52.902;6.024;2023-02-28T12:29:17;13.80;88.60
52459;DHT22;38372;52.902;6.024;2023-02-28T12:34:20;13.70;90.90
52459;DHT22;38372;52.902;6.024;2023-02-28T12:36:47;13.50;88.90
52459;DHT22;38372;52.902;6.024;2023-02-28T12:39:26;12.60;87.00
52459;DHT22;38372;52.902;6.024;2023-02-28T12:42:24;11.80;87.30
52459;DHT22;38372;52.902;6.024;2023-02-28T12:45:07;11.50;90.00
52459;DHT22;38372;52.902;6.024;2023-02-28T12:47:36;11.60;90.40
52459;DHT22;38372;52.902;6.024;2023-02-28T12:50:06;12.10;91.00
52459;DHT22;38372;52.902;6.024;2023-02-28T12:52:54;12.70;91.20
52459;DHT22;38372;52.902;6.024;2023-02-28T13:09:16;12.70;87.70
52459;DHT22;38372;52.902;6.024;2023-02-28T13:11:48;12.50;90.30
52459;DHT22;38372;52.902;6.024;2023-02-28T13:19:26;12.80;89.30
52459;DHT22;38372;52.902;6.024;2023-02-28T13:21:52;12.90;90.30
52459;DHT22;38372;52.902;6.024;2023-02-28T13:29:36;12.30;92.80
52459;DHT22;38372;52.902;6.024;2023-02-28T13:39:57;12.80;92.30
52459;DHT22;38372;52.902;6.024;2023-02-28T13:42:32;12.40;92.40
52459;DHT22;38372;52.902;6.024;2023-02-28T13:48:01;11.80;92.80
52459;DHT22;38372;52.902;6.024;2023-02-28T13:50:36;11.50;92.30
52459;DHT22;38372;52.902;6.024;2023-02-28T14:00:37;9.90;93.10
52459;DHT22;38372;52.902;6.024;2023-02-28T14:03:29;9.70;93.50
52459;DHT22;38372;52.902;6.024;2023-02-28T14:06:22;9.70;92.90
52459;DHT22;38372;52.902;6.024;2023-02-28T14:08:57;9.80;92.70
52459;DHT22;38372;52.902;6.024;2023-02-28T14:11:34;9.70;92.70
52459;DHT22;38372;52.902;6.024;2023-02-28T14:14:01;9.80;93.20
52459;DHT22;38372;52.902;6.024;2023-02-28T14:16:47;10.00;93.80
52459;DHT22;38372;52.902;6.024;2023-02-28T14:19:26;9.90;94.80
52459;DHT22;38372;52.902;6.024;2023-02-28T14:24:59;10.40;94.60
52459;DHT22;38372;52.902;6.024;2023-02-28T14:39:03;9.50;94.90
52459;DHT22;38372;52.902;6.024;2023-02-28T14:41:31;9.10;95.50
52459;DHT22;38372;52.902;6.024;2023-02-28T14:44:02;8.60;96.20
52459;DHT22;38372;52.902;6.024;2023-02-28T14:46:37;8.30;97.10
52459;DHT22;38372;52.902;6.024;2023-02-28T14:49:21;8.60;99.10
52459;DHT22;38372;52.902;6.024;2023-02-28T14:54:56;10.10;97.60
52459;DHT22;38372;52.902;6.024;2023-02-28T14:57:29;10.80;96.90
52459;DHT22;38372;52.902;6.024;2023-02-28T15:02:40;10.90;95.90
52459;DHT22;38372;52.902;6.024;2023-02-28T15:07:43;11.00;96.10
52459;DHT22;38372;52.902;6.024;2023-02-28T15:10:13;11.10;95.60
52459;DHT22;38372;52.902;6.024;2023-02-28T15:12:50;10.60;95.70
52459;DHT22;38372;52.902;6.024;2023-02-28T15:15:17;10.10;96.10
52459;DHT22;38372;52.902;6.024;2023-02-28T15:17:50;9.90;96.70
52459;DHT22;38372;52.902;6.024;2023-02-28T15:20:18;10.10;97.10
52459;DHT22;38372;52.902;6.024;2023-02-28T15:22:45;10.80;96.40
52459;DHT22;38372;52.902;6.024;2023-02-28T15:25:15;11.80;94.80
52459;DHT22;38372;52.902;6.024;2023-02-28T15:27:48;12.30;93.80
52459;DHT22;38372;52.902;6.024;2023-02-28T15:33:19;12.00;91.60
52459;DHT22;38372;52.902;6.024;2023-02-28T15:35:46;11.40;91.70
52459;DHT22;38372;52.902;6.024;2023-02-28T15:40:56;10.20;92.90
52459;DHT22;38372;52.902;6.024;2023-02-28T15:43:37;9.90;93.40
52459;DHT22;38372;52.902;6.024;2023-02-28T15:46:08;9.80;93.90
52459;DHT22;38372;52.902;6.024;2023-02-28T15:48:38;9.70;94.70
52459;DHT22;38372;52.902;6.024;2023-02-28T15:53:48;9.20;95.40
52459;DHT22;38372;52.902;6.024;2023-02-28T15:56:25;8.90;96.10
52459;DHT22;38372;52.902;6.024;2023-02-28T15:59:03;8.80;96.70
52459;DHT22;38372;52.902;6.024;2023-02-28T16:01:33;8.50;97.00
52459;DHT22;38372;52.902;6.024;2023-02-28T16:04:05;8.20;97.40
52459;DHT22;38372;52.902;6.024;2023-02-28T16:06:38;7.80;98.00
52459;DHT22;38372;52.902;6.024;2023-02-28T16:09:08;7.50;98.80
52459;DHT22;38372;52.902;6.024;2023-02-28T16:11:40;7.30;99.60
52459;DHT22;38372;52.902;6.024;2023-02-28T16:14:11;7.20;99.90
52459;DHT22;38372;52.902;6.024;2023-02-28T16:16:43;7.10;99.90
52459;DHT22;38372;52.902;6.024;2023-02-28T16:19:09;6.90;99.90
52459;DHT22;38372;52.902;6.024;2023-02-28T16:21:36;6.80;99.90
52459;DHT22;38372;52.902;6.024;2023-02-28T16:24:02;6.60;99.90
52459;DHT22;38372;52.902;6.024;2023-02-28T16:26:29;6.50;99.90
52459;DHT22;38372;52.902;6.024;2023-02-28T16:28:55;6.40;99.90
52459;DHT22;38372;52.902;6.024;2023-02-28T16:31:21;6.30;99.90
52459;DHT22;38372;52.902;6.024;2023-02-28T16:33:47;6.20;99.90
52459;DHT22;38372;52.902;6.024;2023-02-28T16:36:19;6.10;99.90
52459;DHT22;38372;52.902;6.024;2023-02-28T16:38:45;6.00;99.90
52459;DHT22;38372;52.902;6.024;2023-02-28T16:41:22;6.00;99.90
52459;DHT22;38372;52.902;6.024;2023-02-28T16:43:51;5.90;99.90
52459;DHT22;38372;52.902;6.024;2023-02-28T16:46:18;5.80;99.90
52459;DHT22;38372;52.902;6.024;2023-02-28T16:48:45;5.70;99.90
52459;DHT22;38372;52.902;6.024;2023-02-28T16:51:12;5.60;99.90
52459;DHT22;38372;52.902;6.024;2023-02-28T16:53:39;5.50;99.90
52459;DHT22;38372;52.902;6.024;2023-02-28T16:56:05;5.50;99.90
52459;DHT22;38372;52.902;6.024;2023-02-28T16:58:32;5.40;99.90
52459;DHT22;38372;52.902;6.024;2023-02-28T17:01:02;5.30;99.90
52459;DHT22;38372;52.902;6.024;2023-02-28T17:03:28;5.30;99.90
52459;DHT22;38372;52.902;6.024;2023-02-28T17:05:57;5.20;99.90
52459;DHT22;38372;52.902;6.024;2023-02-28T17:08:24;5.10;99.90
52459;DHT22;38372;52.902;6.024;2023-02-28T17:10:52;5.00;99.90
52459;DHT22;38372;52.902;6.024;2023-02-28T17:13:19;5.00;99.90
52459;DHT22;38372;52.902;6.024;2023-02-28T17:15:46;4.90;99.90
52459;DHT22;38372;52.902;6.024;2023-02-28T17:18:17;4.80;99.90
52459;DHT22;38372;52.902;6.024;2023-02-28T17:20:49;4.80;99.90
52459;DHT22;38372;52.902;6.024;2023-02-28T17:23:15;4.70;99.90
52459;DHT22;38372;52.902;6.024;2023-02-28T17:25:43;4.70;99.90
52459;DHT22;38372;52.902;6.024;2023-02-28T17:28:21;4.60;99.90
52459;DHT22;38372;52.902;6.024;2023-02-28T17:30:48;4.50;99.90
52459;DHT22;38372;52.902;6.024;2023-02-28T17:33:15;4.40;99.90
52459;DHT22;38372;52.902;6.024;2023-02-28T17:35:40;4.30;99.90
52459;DHT22;38372;52.902;6.024;2023-02-28T17:38:16;4.10;99.90
52459;DHT22;38372;52.902;6.024;2023-02-28T17:40:42;4.00;99.90
52459;DHT22;38372;52.902;6.024;2023-02-28T17:43:08;3.90;99.90
52459;DHT22;38372;52.902;6.024;2023-02-28T17:45:33;3.80;99.90
52459;DHT22;38372;52.902;6.024;2023-02-28T17:48:01;3.70;99.90
52459;DHT22;38372;52.902;6.024;2023-02-28T17:50:27;3.60;99.90
52459;DHT22;38372;52.902;6.024;2023-02-28T17:52:53;3.50;99.90
52459;DHT22;38372;52.902;6.024;2023-02-28T17:55:19;3.50;99.90
52459;DHT22;38372;52.902;6.024;2023-02-28T17:57:44;3.40;99.90
52459;DHT22;38372;52.902;6.024;2023-02-28T18:00:12;3.30;99.90
52459;DHT22;38372;52.902;6.024;2023-02-28T18:02:39;3.20;99.90
52459;DHT22;38372;52.902;6.024;2023-02-28T18:05:05;3.20;99.90
52459;DHT22;38372;52.902;6.024;2023-02-28T18:07:31;3.10;99.90
52459;DHT22;38372;52.902;6.024;2023-02-28T18:09:57;3.00;99.90
52459;DHT22;38372;52.902;6.024;2023-02-28T18:12:23;3.00;99.90
52459;DHT22;38372;52.902;6.024;2023-02-28T18:14:49;3.10;99.90
52459;DHT22;38372;52.902;6.024;2023-02-28T18:17:15;3.10;99.90
52459;DHT22;38372;52.902;6.024;2023-02-28T18:19:41;3.10;99.90
52459;DHT22;38372;52.902;6.024;2023-02-28T18:22:07;3.10;99.90
52459;DHT22;38372;52.902;6.024;2023-02-28T18:24:33;3.10;99.90
52459;DHT22;38372;52.902;6.024;2023-02-28T18:26:59;3.00;99.90
52459;DHT22;38372;52.902;6.024;2023-02-28T18:29:27;2.80;99.90
52459;DHT22;38372;52.902;6.024;2023-02-28T18:31:54;2.70;99.90
52459;DHT22;38372;52.902;6.024;2023-02-28T18:34:22;2.60;99.90
52459;DHT22;38372;52.902;6.024;2023-02-28T18:36:48;2.40;99.90
52459;DHT22;38372;52.902;6.024;2023-02-28T18:39:16;2.40;99.90
52459;DHT22;38372;52.902;6.024;2023-02-28T18:41:42;2.30;99.90
52459;DHT22;38372;52.902;6.024;2023-02-28T18:44:08;2.30;99.90
52459;DHT22;38372;52.902;6.024;2023-02-28T18:46:34;2.20;99.90